sensor_id;sensor_type;location;lat;lon;timestamp;temperature;humidity
3602;DHT22;1815;50.950;6.920;2023-07-20T00:01:18;20.40;94.80
3602;DHT22;1815;50.950;6.920;2023-07-20T00:03:43;20.40;95.00
3602;DHT22;1815;50.950;6.920;2023-07-20T00:06:09;20.40;95.10
3602;DHT22;1815;50.950;6.920;2023-07-20T00:08:36;20.40;95.20
3602;DHT22;1815;50.950;6.920;2023-07-20T00:11:02;20.40;95.40
3602;DHT22;1815;50.950;6.920;2023-07-20T00:13:27;20.40;95.50
3602;DHT22;1815;50.950;6.920;2023-07-20T00:15:53;20.40;95.60
3602;DHT22;1815;50.950;6.920;2023-07-20T00:18:19;20.40;95.80
3602;DHT22;1815;50.950;6.920;2023-07-20T00:20:47;20.40;96.00
3602;DHT22;1815;50.950;6.920;2023-07-20T00:23:13;20.50;96.20
3602;DHT22;1815;50.950;6.920;2023-07-20T00:25:38;20.50;96.40
3602;DHT22;1815;50.950;6.920;2023-07-20T00:28:04;20.50;96.40
3602;DHT22;1815;50.950;6.920;2023-07-20T00:30:30;20.60;96.50
3602;DHT22;1815;50.950;6.920;2023-07-20T00:32:55;20.60;96.70
3602;DHT22;1815;50.950;6.920;2023-07-20T00:35:22;20.70;96.80
3602;DHT22;1815;50.950;6.920;2023-07-20T00:37:48;20.70;96.80
3602;DHT22;1815;50.950;6.920;2023-07-20T00:40:13;20.80;96.90
3602;DHT22;1815;50.950;6.920;2023-07-20T00:42:39;20.80;97.00
3602;DHT22;1815;50.950;6.920;2023-07-20T00:45:06;20.80;97.10
3602;DHT22;1815;50.950;6.920;2023-07-20T00:47:32;20.90;97.10
3602;DHT22;1815;50.950;6.920;2023-07-20T00:49:58;20.90;97.10
3602;DHT22;1815;50.950;6.920;2023-07-20T00:52:25;20.90;97.20
3602;DHT22;1815;50.950;6.920;2023-07-20T00:54:52;20.90;97.30
3602;DHT22;1815;50.950;6.920;2023-07-20T00:57:19;20.90;97.40
3602;DHT22;1815;50.950;6.920;2023-07-20T00:59:45;20.90;97.50
3602;DHT22;1815;50.950;6.920;2023-07-20T01:02:10;20.90;97.60
3602;DHT22;1815;50.950;6.920;2023-07-20T01:04:36;20.80;97.60
3602;DHT22;1815;50.950;6.920;2023-07-20T01:12:47;20.80;98.50
3602;DHT22;1815;50.950;6.920;2023-07-20T01:15:12;20.70;98.60
3602;DHT22;1815;50.950;6.920;2023-07-20T01:17:38;20.80;98.50
3602;DHT22;1815;50.950;6.920;2023-07-20T01:20:10;20.80;98.70
3602;DHT22;1815;50.950;6.920;2023-07-20T01:25:28;20.80;99.00
3602;DHT22;1815;50.950;6.920;2023-07-20T01:33:46;20.80;99.70
3602;DHT22;1815;50.950;6.920;2023-07-20T01:36:13;20.80;99.50
3602;DHT22;1815;50.950;6.920;2023-07-20T01:38:40;20.80;99.60
3602;DHT22;1815;50.950;6.920;2023-07-20T01:41:07;20.70;99.70
3602;DHT22;1815;50.950;6.920;2023-07-20T01:43:34;20.70;99.90
3602;DHT22;1815;50.950;6.920;2023-07-20T01:45:59;20.70;99.90
3602;DHT22;1815;50.950;6.920;2023-07-20T01:48:26;20.70;99.90
3602;DHT22;1815;50.950;6.920;2023-07-20T01:50:52;20.60;99.90
3602;DHT22;1815;50.950;6.920;2023-07-20T01:53:18;20.60;99.90
3602;DHT22;1815;50.950;6.920;2023-07-20T01:55:44;20.60;99.90
3602;DHT22;1815;50.950;6.920;2023-07-20T01:58:09;20.60;99.90
3602;DHT22;1815;50.950;6.920;2023-07-20T02:00:37;20.50;99.90
3602;DHT22;1815;50.950;6.920;2023-07-20T02:03:04;20.50;99.90
3602;DHT22;1815;50.950;6.920;2023-07-20T02:05:30;20.40;99.90
3602;DHT22;1815;50.950;6.920;2023-07-20T02:07:55;20.40;99.90
3602;DHT22;1815;50.950;6.920;2023-07-20T02:10:21;20.40;99.90
3602;DHT22;1815;50.950;6.920;2023-07-20T02:12:47;20.40;99.90
3602;DHT22;1815;50.950;6.920;2023-07-20T02:15:14;20.40;99.90
3602;DHT22;1815;50.950;6.920;2023-07-20T02:17:42;20.40;99.90
3602;DHT22;1815;50.950;6.920;2023-07-20T02:20:09;20.30;99.90
3602;DHT22;1815;50.950;6.920;2023-07-20T02:22:36;20.30;99.90
3602;DHT22;1815;50.950;6.920;2023-07-20T02:25:04;20.20;99.90
3602;DHT22;1815;50.950;6.920;2023-07-20T02:27:31;20.20;99.90
3602;DHT22;1815;50.950;6.920;2023-07-20T02:29:56;20.10;99.90
3602;DHT22;1815;50.950;6.920;2023-07-20T02:32:22;20.00;99.90
3602;DHT22;1815;50.950;6.920;2023-07-20T02:34:48;19.90;99.90
3602;DHT22;1815;50.950;6.920;2023-07-20T02:37:14;19.90;99.90
3602;DHT22;1815;50.950;6.920;2023-07-20T02:39:39;19.80;99.90
3602;DHT22;1815;50.950;6.920;2023-07-20T02:42:06;19.80;99.90
3602;DHT22;1815;50.950;6.920;2023-07-20T02:44:31;19.70;99.90
3602;DHT22;1815;50.950;6.920;2023-07-20T02:46:57;19.70;99.90
3602;DHT22;1815;50.950;6.920;2023-07-20T02:49:23;19.60;99.90
3602;DHT22;1815;50.950;6.920;2023-07-20T02:51:49;19.60;99.90
3602;DHT22;1815;50.950;6.920;2023-07-20T02:54:15;19.50;99.90
3602;DHT22;1815;50.950;6.920;2023-07-20T02:56:40;19.50;99.90
3602;DHT22;1815;50.950;6.920;2023-07-20T02:59:06;19.50;99.90
3602;DHT22;1815;50.950;6.920;2023-07-20T03:01:32;19.40;99.90
3602;DHT22;1815;50.950;6.920;2023-07-20T03:03:58;19.40;99.90
3602;DHT22;1815;50.950;6.920;2023-07-20T03:06:23;19.30;99.90
3602;DHT22;1815;50.950;6.920;2023-07-20T03:08:49;19.30;99.90
3602;DHT22;1815;50.950;6.920;2023-07-20T03:11:18;19.30;99.90
3602;DHT22;1815;50.950;6.920;2023-07-20T03:13:44;19.20;99.90
3602;DHT22;1815;50.950;6.920;2023-07-20T03:16:11;19.20;99.90
3602;DHT22;1815;50.950;6.920;2023-07-20T03:18:41;19.20;99.90
3602;DHT22;1815;50.950;6.920;2023-07-20T03:21:09;19.20;99.90
3602;DHT22;1815;50.950;6.920;2023-07-20T03:23:37;19.20;99.90
3602;DHT22;1815;50.950;6.920;2023-07-20T03:26:03;19.20;99.90
3602;DHT22;1815;50.950;6.920;2023-07-20T03:28:30;19.20;99.90
3602;DHT22;1815;50.950;6.920;2023-07-20T03:30:57;19.20;99.90
3602;DHT22;1815;50.950;6.920;2023-07-20T03:33:28;19.20;99.90
3602;DHT22;1815;50.950;6.920;2023-07-20T03:35:56;19.10;99.90
3602;DHT22;1815;50.950;6.920;2023-07-20T03:38:22;19.20;99.90
3602;DHT22;1815;50.950;6.920;2023-07-20T03:40:56;19.20;99.90
3602;DHT22;1815;50.950;6.920;2023-07-20T03:43:26;19.20;99.90
3602;DHT22;1815;50.950;6.920;2023-07-20T03:45:52;19.30;99.90
3602;DHT22;1815;50.950;6.920;2023-07-20T03:48:20;19.30;99.90
3602;DHT22;1815;50.950;6.920;2023-07-20T03:50:48;19.30;99.90
3602;DHT22;1815;50.950;6.920;2023-07-20T03:53:15;19.40;99.90
3602;DHT22;1815;50.950;6.920;2023-07-20T03:55:50;19.40;99.90
3602;DHT22;1815;50.950;6.920;2023-07-20T03:58:17;19.40;99.90
3602;DHT22;1815;50.950;6.920;2023-07-20T04:00:47;19.40;99.90
3602;DHT22;1815;50.950;6.920;2023-07-20T04:03:14;19.50;99.90
3602;DHT22;1815;50.950;6.920;2023-07-20T04:05:40;19.50;99.90
3602;DHT22;1815;50.950;6.920;2023-07-20T04:08:05;19.50;99.90
3602;DHT22;1815;50.950;6.920;2023-07-20T04:10:31;19.50;99.90
3602;DHT22;1815;50.950;6.920;2023-07-20T04:12:57;19.50;99.90
3602;DHT22;1815;50.950;6.920;2023-07-20T04:15:23;19.60;99.90
3602;DHT22;1815;50.950;6.920;2023-07-20T04:17:49;19.60;99.90
3602;DHT22;1815;50.950;6.920;2023-07-20T04:20:14;19.60;99.90
3602;DHT22;1815;50.950;6.920;2023-07-20T04:22:40;19.70;99.90
3602;DHT22;1815;50.950;6.920;2023-07-20T04:25:09;19.70;99.90
3602;DHT22;1815;50.950;6.920;2023-07-20T04:27:36;19.70;99.90
3602;DHT22;1815;50.950;6.920;2023-07-20T04:30:02;19.80;99.90
3602;DHT22;1815;50.950;6.920;2023-07-20T04:32:29;19.80;99.90
3602;DHT22;1815;50.950;6.920;2023-07-20T04:34:56;19.80;99.90
3602;DHT22;1815;50.950;6.920;2023-07-20T04:37:22;19.90;99.90
3602;DHT22;1815;50.950;6.920;2023-07-20T04:39:48;19.90;99.90
3602;DHT22;1815;50.950;6.920;2023-07-20T04:42:14;19.90;99.90
3602;DHT22;1815;50.950;6.920;2023-07-20T04:44:41;20.00;99.90
3602;DHT22;1815;50.950;6.920;2023-07-20T04:47:08;20.00;99.90
3602;DHT22;1815;50.950;6.920;2023-07-20T04:49:37;20.10;99.90
3602;DHT22;1815;50.950;6.920;2023-07-20T04:52:03;20.10;99.90
3602;DHT22;1815;50.950;6.920;2023-07-20T04:54:29;20.10;99.90
3602;DHT22;1815;50.950;6.920;2023-07-20T04:56:55;20.20;99.90
3602;DHT22;1815;50.950;6.920;2023-07-20T04:59:22;20.20;99.90
3602;DHT22;1815;50.950;6.920;2023-07-20T05:01:47;20.30;99.90
3602;DHT22;1815;50.950;6.920;2023-07-20T05:04:14;20.30;99.90
3602;DHT22;1815;50.950;6.920;2023-07-20T05:06:40;20.40;99.90
3602;DHT22;1815;50.950;6.920;2023-07-20T05:09:06;20.40;99.90
3602;DHT22;1815;50.950;6.920;2023-07-20T05:11:34;20.40;99.90
3602;DHT22;1815;50.950;6.920;2023-07-20T05:14:00;20.40;99.90
3602;DHT22;1815;50.950;6.920;2023-07-20T05:16:27;20.50;99.90
3602;DHT22;1815;50.950;6.920;2023-07-20T05:18:56;20.50;99.90
3602;DHT22;1815;50.950;6.920;2023-07-20T05:21:22;20.50;99.90
3602;DHT22;1815;50.950;6.920;2023-07-20T05:23:48;20.50;99.90
3602;DHT22;1815;50.950;6.920;2023-07-20T05:26:15;20.60;99.90
3602;DHT22;1815;50.950;6.920;2023-07-20T05:28:40;20.60;99.90
3602;DHT22;1815;50.950;6.920;2023-07-20T05:31:06;20.60;99.90
3602;DHT22;1815;50.950;6.920;2023-07-20T05:33:32;20.60;99.90
3602;DHT22;1815;50.950;6.920;2023-07-20T05:35:57;20.70;99.90
3602;DHT22;1815;50.950;6.920;2023-07-20T05:38:23;20.70;99.90
3602;DHT22;1815;50.950;6.920;2023-07-20T05:40:49;20.70;99.90
3602;DHT22;1815;50.950;6.920;2023-07-20T05:43:14;20.80;99.90
3602;DHT22;1815;50.950;6.920;2023-07-20T05:45:43;20.80;99.90
3602;DHT22;1815;50.950;6.920;2023-07-20T05:48:10;20.90;99.90
3602;DHT22;1815;50.950;6.920;2023-07-20T05:50:37;20.90;99.90
3602;DHT22;1815;50.950;6.920;2023-07-20T05:53:03;21.00;99.90
3602;DHT22;1815;50.950;6.920;2023-07-20T05:55:29;21.10;99.90
3602;DHT22;1815;50.950;6.920;2023-07-20T05:57:55;21.20;99.90
3602;DHT22;1815;50.950;6.920;2023-07-20T06:00:21;21.40;99.90
3602;DHT22;1815;50.950;6.920;2023-07-20T06:02:53;21.60;99.90
3602;DHT22;1815;50.950;6.920;2023-07-20T06:05:19;21.90;99.90
3602;DHT22;1815;50.950;6.920;2023-07-20T06:07:45;22.10;99.90
3602;DHT22;1815;50.950;6.920;2023-07-20T06:10:11;22.20;99.90
3602;DHT22;1815;50.950;6.920;2023-07-20T06:12:37;22.30;99.90
3602;DHT22;1815;50.950;6.920;2023-07-20T06:15:03;22.40;99.90
3602;DHT22;1815;50.950;6.920;2023-07-20T06:17:29;22.40;99.90
3602;DHT22;1815;50.950;6.920;2023-07-20T06:19:55;22.50;99.90
3602;DHT22;1815;50.950;6.920;2023-07-20T06:22:21;22.60;99.90
3602;DHT22;1815;50.950;6.920;2023-07-20T06:24:47;22.60;99.90
3602;DHT22;1815;50.950;6.920;2023-07-20T06:27:12;22.60;99.90
3602;DHT22;1815;50.950;6.920;2023-07-20T06:29:38;22.60;99.90
3602;DHT22;1815;50.950;6.920;2023-07-20T06:32:05;22.60;99.90
3602;DHT22;1815;50.950;6.920;2023-07-20T06:34:30;22.60;99.90
3602;DHT22;1815;50.950;6.920;2023-07-20T06:36:56;22.50;99.90
3602;DHT22;1815;50.950;6.920;2023-07-20T06:39:22;22.60;99.90
3602;DHT22;1815;50.950;6.920;2023-07-20T06:41:48;23.00;99.90
3602;DHT22;1815;50.950;6.920;2023-07-20T06:44:13;23.60;99.90
3602;DHT22;1815;50.950;6.920;2023-07-20T06:46:39;24.40;99.90
3602;DHT22;1815;50.950;6.920;2023-07-20T06:49:08;25.00;99.90
3602;DHT22;1815;50.950;6.920;2023-07-20T06:51:33;25.30;99.90
3602;DHT22;1815;50.950;6.920;2023-07-20T06:53:59;25.50;99.90
3602;DHT22;1815;50.950;6.920;2023-07-20T06:56:25;25.80;99.90
3602;DHT22;1815;50.950;6.920;2023-07-20T06:58:50;25.80;99.90
3602;DHT22;1815;50.950;6.920;2023-07-20T07:01:16;25.70;99.90
3602;DHT22;1815;50.950;6.920;2023-07-20T07:03:42;25.60;99.90
3602;DHT22;1815;50.950;6.920;2023-07-20T07:06:09;25.30;99.90
3602;DHT22;1815;50.950;6.920;2023-07-20T07:08:35;25.10;99.90
3602;DHT22;1815;50.950;6.920;2023-07-20T07:11:01;24.80;99.90
3602;DHT22;1815;50.950;6.920;2023-07-20T07:13:27;24.70;99.90
3602;DHT22;1815;50.950;6.920;2023-07-20T07:15:53;24.80;99.90
3602;DHT22;1815;50.950;6.920;2023-07-20T07:18:18;25.10;99.90
3602;DHT22;1815;50.950;6.920;2023-07-20T07:20:52;25.30;99.90
3602;DHT22;1815;50.950;6.920;2023-07-20T07:23:18;25.30;99.90
3602;DHT22;1815;50.950;6.920;2023-07-20T07:25:44;25.20;99.90
3602;DHT22;1815;50.950;6.920;2023-07-20T07:28:09;25.10;99.90
3602;DHT22;1815;50.950;6.920;2023-07-20T07:30:36;24.90;99.90
3602;DHT22;1815;50.950;6.920;2023-07-20T07:33:01;24.70;99.90
3602;DHT22;1815;50.950;6.920;2023-07-20T07:35:27;24.60;99.90
3602;DHT22;1815;50.950;6.920;2023-07-20T07:37:53;24.60;99.90
3602;DHT22;1815;50.950;6.920;2023-07-20T07:40:18;24.60;99.90
3602;DHT22;1815;50.950;6.920;2023-07-20T07:42:44;24.70;99.90
3602;DHT22;1815;50.950;6.920;2023-07-20T07:45:10;24.70;99.90
3602;DHT22;1815;50.950;6.920;2023-07-20T07:47:35;24.90;99.90
3602;DHT22;1815;50.950;6.920;2023-07-20T07:50:02;25.10;99.90
3602;DHT22;1815;50.950;6.920;2023-07-20T07:52:28;25.40;99.90
3602;DHT22;1815;50.950;6.920;2023-07-20T07:54:53;26.00;99.90
3602;DHT22;1815;50.950;6.920;2023-07-20T07:57:19;26.70;99.90
3602;DHT22;1815;50.950;6.920;2023-07-20T07:59:45;27.30;99.90
3602;DHT22;1815;50.950;6.920;2023-07-20T08:02:11;27.40;99.90
3602;DHT22;1815;50.950;6.920;2023-07-20T08:04:37;27.40;99.20
3602;DHT22;1815;50.950;6.920;2023-07-20T08:07:04;27.30;98.40
3602;DHT22;1815;50.950;6.920;2023-07-20T08:09:29;27.10;97.50
3602;DHT22;1815;50.950;6.920;2023-07-20T08:11:55;27.00;97.30
3602;DHT22;1815;50.950;6.920;2023-07-20T08:14:21;27.30;98.30
3602;DHT22;1815;50.950;6.920;2023-07-20T08:16:47;27.90;99.00
3602;DHT22;1815;50.950;6.920;2023-07-20T08:19:13;28.70;99.40
3602;DHT22;1815;50.950;6.920;2023-07-20T08:21:38;29.60;98.80
3602;DHT22;1815;50.950;6.920;2023-07-20T08:24:04;30.40;97.80
3602;DHT22;1815;50.950;6.920;2023-07-20T08:26:30;31.10;96.20
3602;DHT22;1815;50.950;6.920;2023-07-20T08:28:55;32.00;95.50
3602;DHT22;1815;50.950;6.920;2023-07-20T08:31:22;32.80;94.00
3602;DHT22;1815;50.950;6.920;2023-07-20T08:33:47;33.50;92.40
3602;DHT22;1815;50.950;6.920;2023-07-20T08:36:14;34.20;88.80
3602;DHT22;1815;50.950;6.920;2023-07-20T08:38:39;34.70;85.20
3602;DHT22;1815;50.950;6.920;2023-07-20T08:41:05;35.00;80.80
3602;DHT22;1815;50.950;6.920;2023-07-20T08:43:31;35.40;76.80
3602;DHT22;1815;50.950;6.920;2023-07-20T08:45:58;35.90;74.20
3602;DHT22;1815;50.950;6.920;2023-07-20T08:48:24;36.20;72.30
3602;DHT22;1815;50.950;6.920;2023-07-20T08:50:53;36.60;69.40
3602;DHT22;1815;50.950;6.920;2023-07-20T08:53:23;36.80;65.80
3602;DHT22;1815;50.950;6.920;2023-07-20T08:55:51;36.80;62.90
3602;DHT22;1815;50.950;6.920;2023-07-20T08:58:20;36.60;58.60
3602;DHT22;1815;50.950;6.920;2023-07-20T09:00:46;36.70;58.90
3602;DHT22;1815;50.950;6.920;2023-07-20T09:03:16;37.00;58.40
3602;DHT22;1815;50.950;6.920;2023-07-20T09:05:41;37.30;58.10
3602;DHT22;1815;50.950;6.920;2023-07-20T09:08:07;37.40;55.90
3602;DHT22;1815;50.950;6.920;2023-07-20T09:10:33;37.70;55.30
3602;DHT22;1815;50.950;6.920;2023-07-20T09:12:59;37.90;54.60
3602;DHT22;1815;50.950;6.920;2023-07-20T09:15:25;37.90;53.20
3602;DHT22;1815;50.950;6.920;2023-07-20T09:17:51;37.60;51.40
3602;DHT22;1815;50.950;6.920;2023-07-20T09:20:20;37.50;51.10
3602;DHT22;1815;50.950;6.920;2023-07-20T09:22:46;37.20;50.10
3602;DHT22;1815;50.950;6.920;2023-07-20T09:25:12;36.80;49.50
3602;DHT22;1815;50.950;6.920;2023-07-20T09:27:42;36.40;49.50
3602;DHT22;1815;50.950;6.920;2023-07-20T09:30:09;36.10;49.50
3602;DHT22;1815;50.950;6.920;2023-07-20T09:32:41;35.80;49.40
3602;DHT22;1815;50.950;6.920;2023-07-20T09:35:22;35.30;48.90
3602;DHT22;1815;50.950;6.920;2023-07-20T09:38:00;34.80;48.80
3602;DHT22;1815;50.950;6.920;2023-07-20T09:40:27;34.20;49.10
3602;DHT22;1815;50.950;6.920;2023-07-20T09:42:54;33.60;49.00
3602;DHT22;1815;50.950;6.920;2023-07-20T09:45:42;33.50;49.70
3602;DHT22;1815;50.950;6.920;2023-07-20T09:48:09;33.80;51.20
3602;DHT22;1815;50.950;6.920;2023-07-20T09:50:49;34.10;51.50
3602;DHT22;1815;50.950;6.920;2023-07-20T09:53:16;34.10;49.60
3602;DHT22;1815;50.950;6.920;2023-07-20T09:55:47;33.80;48.60
3602;DHT22;1815;50.950;6.920;2023-07-20T09:58:14;33.50;48.50
3602;DHT22;1815;50.950;6.920;2023-07-20T10:00:41;33.40;48.70
3602;DHT22;1815;50.950;6.920;2023-07-20T10:03:11;33.60;49.10
3602;DHT22;1815;50.950;6.920;2023-07-20T10:05:41;34.00;49.60
3602;DHT22;1815;50.950;6.920;2023-07-20T10:08:11;34.50;50.10
3602;DHT22;1815;50.950;6.920;2023-07-20T10:10:40;35.30;50.30
3602;DHT22;1815;50.950;6.920;2023-07-20T10:13:10;35.80;49.60
3602;DHT22;1815;50.950;6.920;2023-07-20T10:16:03;36.00;48.30
3602;DHT22;1815;50.950;6.920;2023-07-20T10:18:35;35.90;47.20
3602;DHT22;1815;50.950;6.920;2023-07-20T10:21:06;35.60;46.00
3602;DHT22;1815;50.950;6.920;2023-07-20T10:23:33;35.00;44.90
3602;DHT22;1815;50.950;6.920;2023-07-20T10:26:01;34.50;45.10
3602;DHT22;1815;50.950;6.920;2023-07-20T10:28:28;34.10;44.80
3602;DHT22;1815;50.950;6.920;2023-07-20T10:30:54;33.70;44.90
3602;DHT22;1815;50.950;6.920;2023-07-20T10:33:20;33.30;44.60
3602;DHT22;1815;50.950;6.920;2023-07-20T10:35:59;32.90;44.90
3602;DHT22;1815;50.950;6.920;2023-07-20T10:41:19;32.40;45.10
3602;DHT22;1815;50.950;6.920;2023-07-20T10:43:46;32.70;46.60
3602;DHT22;1815;50.950;6.920;2023-07-20T10:46:13;32.90;46.60
3602;DHT22;1815;50.950;6.920;2023-07-20T10:49:01;32.90;46.20
3602;DHT22;1815;50.950;6.920;2023-07-20T10:51:38;32.80;45.70
3602;DHT22;1815;50.950;6.920;2023-07-20T10:56:44;32.90;46.00
3602;DHT22;1815;50.950;6.920;2023-07-20T10:59:19;32.90;45.80
3602;DHT22;1815;50.950;6.920;2023-07-20T11:01:47;32.90;45.70
3602;DHT22;1815;50.950;6.920;2023-07-20T11:04:15;33.00;45.60
3602;DHT22;1815;50.950;6.920;2023-07-20T11:06:55;32.70;44.80
3602;DHT22;1815;50.950;6.920;2023-07-20T11:09:22;32.40;44.20
3602;DHT22;1815;50.950;6.920;2023-07-20T11:12:09;32.10;44.30
3602;DHT22;1815;50.950;6.920;2023-07-20T11:14:58;31.70;44.20
3602;DHT22;1815;50.950;6.920;2023-07-20T11:17:31;31.50;44.30
3602;DHT22;1815;50.950;6.920;2023-07-20T11:19:58;31.20;44.70
3602;DHT22;1815;50.950;6.920;2023-07-20T11:22:27;31.00;45.20
3602;DHT22;1815;50.950;6.920;2023-07-20T11:24:56;30.90;45.90
3602;DHT22;1815;50.950;6.920;2023-07-20T11:27:22;30.80;45.70
3602;DHT22;1815;50.950;6.920;2023-07-20T11:29:48;30.70;45.90
3602;DHT22;1815;50.950;6.920;2023-07-20T11:32:21;30.60;46.10
3602;DHT22;1815;50.950;6.920;2023-07-20T11:34:47;30.50;46.20
3602;DHT22;1815;50.950;6.920;2023-07-20T11:37:13;30.40;46.40
3602;DHT22;1815;50.950;6.920;2023-07-20T11:39:39;30.40;46.60
3602;DHT22;1815;50.950;6.920;2023-07-20T11:42:05;30.40;46.80
3602;DHT22;1815;50.950;6.920;2023-07-20T11:44:32;30.50;47.30
3602;DHT22;1815;50.950;6.920;2023-07-20T11:47:11;30.60;47.40
3602;DHT22;1815;50.950;6.920;2023-07-20T11:49:39;30.60;47.20
3602;DHT22;1815;50.950;6.920;2023-07-20T11:52:13;30.80;47.00
3602;DHT22;1815;50.950;6.920;2023-07-20T11:54:41;30.80;46.60
3602;DHT22;1815;50.950;6.920;2023-07-20T11:57:07;31.00;47.00
3602;DHT22;1815;50.950;6.920;2023-07-20T11:59:33;31.10;46.70
3602;DHT22;1815;50.950;6.920;2023-07-20T12:02:01;31.10;46.40
3602;DHT22;1815;50.950;6.920;2023-07-20T12:04:28;31.10;45.70
3602;DHT22;1815;50.950;6.920;2023-07-20T12:06:54;30.90;45.30
3602;DHT22;1815;50.950;6.920;2023-07-20T12:09:20;30.70;45.30
3602;DHT22;1815;50.950;6.920;2023-07-20T12:11:49;30.40;44.60
3602;DHT22;1815;50.950;6.920;2023-07-20T12:14:15;30.00;44.50
3602;DHT22;1815;50.950;6.920;2023-07-20T12:16:41;29.70;44.60
3602;DHT22;1815;50.950;6.920;2023-07-20T12:19:08;29.40;45.00
3602;DHT22;1815;50.950;6.920;2023-07-20T12:21:35;29.10;45.20
3602;DHT22;1815;50.950;6.920;2023-07-20T12:24:05;28.80;45.40
3602;DHT22;1815;50.950;6.920;2023-07-20T12:26:32;28.60;45.70
3602;DHT22;1815;50.950;6.920;2023-07-20T12:28:59;28.30;45.70
3602;DHT22;1815;50.950;6.920;2023-07-20T12:31:25;28.00;45.80
3602;DHT22;1815;50.950;6.920;2023-07-20T12:33:52;27.80;46.20
3602;DHT22;1815;50.950;6.920;2023-07-20T12:36:18;27.50;46.40
3602;DHT22;1815;50.950;6.920;2023-07-20T12:38:45;27.30;46.70
3602;DHT22;1815;50.950;6.920;2023-07-20T12:41:12;27.10;46.80
3602;DHT22;1815;50.950;6.920;2023-07-20T12:43:42;26.90;47.60
3602;DHT22;1815;50.950;6.920;2023-07-20T12:46:08;26.80;47.50
3602;DHT22;1815;50.950;6.920;2023-07-20T12:48:35;26.60;47.90
3602;DHT22;1815;50.950;6.920;2023-07-20T12:51:03;26.60;48.00
3602;DHT22;1815;50.950;6.920;2023-07-20T12:53:30;26.60;48.30
3602;DHT22;1815;50.950;6.920;2023-07-20T12:55:56;26.50;48.40
3602;DHT22;1815;50.950;6.920;2023-07-20T12:58:21;26.50;48.70
3602;DHT22;1815;50.950;6.920;2023-07-20T13:00:47;26.60;48.90
3602;DHT22;1815;50.950;6.920;2023-07-20T13:03:13;26.60;48.90
3602;DHT22;1815;50.950;6.920;2023-07-20T13:05:39;26.60;49.20
3602;DHT22;1815;50.950;6.920;2023-07-20T13:08:04;26.80;49.50
3602;DHT22;1815;50.950;6.920;2023-07-20T13:10:31;26.90;49.40
3602;DHT22;1815;50.950;6.920;2023-07-20T13:12:57;26.90;49.30
3602;DHT22;1815;50.950;6.920;2023-07-20T13:15:28;27.00;49.30
3602;DHT22;1815;50.950;6.920;2023-07-20T13:17:56;27.10;49.50
3602;DHT22;1815;50.950;6.920;2023-07-20T13:20:21;27.20;49.50
3602;DHT22;1815;50.950;6.920;2023-07-20T13:22:47;27.30;49.60
3602;DHT22;1815;50.950;6.920;2023-07-20T13:25:14;27.40;49.40
3602;DHT22;1815;50.950;6.920;2023-07-20T13:27:39;27.60;49.50
3602;DHT22;1815;50.950;6.920;2023-07-20T13:30:06;27.70;49.40
3602;DHT22;1815;50.950;6.920;2023-07-20T13:32:33;27.80;49.20
3602;DHT22;1815;50.950;6.920;2023-07-20T13:34:59;27.80;49.10
3602;DHT22;1815;50.950;6.920;2023-07-20T13:37:26;27.90;48.90
3602;DHT22;1815;50.950;6.920;2023-07-20T13:39:52;28.00;48.60
3602;DHT22;1815;50.950;6.920;2023-07-20T13:42:18;28.00;48.50
3602;DHT22;1815;50.950;6.920;2023-07-20T13:44:44;27.90;48.50
3602;DHT22;1815;50.950;6.920;2023-07-20T13:47:09;27.90;48.60
3602;DHT22;1815;50.950;6.920;2023-07-20T13:49:35;27.90;48.50
3602;DHT22;1815;50.950;6.920;2023-07-20T13:52:01;27.90;48.40
3602;DHT22;1815;50.950;6.920;2023-07-20T13:54:27;27.90;48.30
3602;DHT22;1815;50.950;6.920;2023-07-20T13:56:53;27.80;48.40
3602;DHT22;1815;50.950;6.920;2023-07-20T13:59:19;27.80;48.40
3602;DHT22;1815;50.950;6.920;2023-07-20T14:01:45;27.80;48.60
3602;DHT22;1815;50.950;6.920;2023-07-20T14:04:12;27.90;48.70
3602;DHT22;1815;50.950;6.920;2023-07-20T14:06:37;27.90;48.70
3602;DHT22;1815;50.950;6.920;2023-07-20T14:09:03;28.00;48.60
3602;DHT22;1815;50.950;6.920;2023-07-20T14:11:29;28.10;48.40
3602;DHT22;1815;50.950;6.920;2023-07-20T14:13:56;28.20;48.20
3602;DHT22;1815;50.950;6.920;2023-07-20T14:16:24;28.20;47.90
3602;DHT22;1815;50.950;6.920;2023-07-20T14:18:50;28.20;47.90
3602;DHT22;1815;50.950;6.920;2023-07-20T14:21:17;28.20;47.40
3602;DHT22;1815;50.950;6.920;2023-07-20T14:23:50;28.10;47.30
3602;DHT22;1815;50.950;6.920;2023-07-20T14:26:18;27.90;47.30
3602;DHT22;1815;50.950;6.920;2023-07-20T14:28:43;27.90;47.20
3602;DHT22;1815;50.950;6.920;2023-07-20T14:31:09;27.80;47.20
3602;DHT22;1815;50.950;6.920;2023-07-20T14:33:35;27.80;47.40
3602;DHT22;1815;50.950;6.920;2023-07-20T14:36:02;27.70;47.40
3602;DHT22;1815;50.950;6.920;2023-07-20T14:38:28;27.80;47.50
3602;DHT22;1815;50.950;6.920;2023-07-20T14:40:54;27.80;47.60
3602;DHT22;1815;50.950;6.920;2023-07-20T14:43:20;27.90;47.40
3602;DHT22;1815;50.950;6.920;2023-07-20T14:45:46;27.90;47.20
3602;DHT22;1815;50.950;6.920;2023-07-20T14:48:12;27.90;47.00
3602;DHT22;1815;50.950;6.920;2023-07-20T14:50:38;27.90;46.80
3602;DHT22;1815;50.950;6.920;2023-07-20T14:53:04;27.90;46.90
3602;DHT22;1815;50.950;6.920;2023-07-20T14:55:30;27.90;47.10
3602;DHT22;1815;50.950;6.920;2023-07-20T14:57:55;27.90;47.10
3602;DHT22;1815;50.950;6.920;2023-07-20T15:00:21;27.90;47.10
3602;DHT22;1815;50.950;6.920;2023-07-20T15:02:47;27.90;47.20
3602;DHT22;1815;50.950;6.920;2023-07-20T15:05:20;27.80;47.30
3602;DHT22;1815;50.950;6.920;2023-07-20T15:07:46;27.80;47.30
3602;DHT22;1815;50.950;6.920;2023-07-20T15:10:12;27.80;47.50
3602;DHT22;1815;50.950;6.920;2023-07-20T15:12:38;27.90;47.50
3602;DHT22;1815;50.950;6.920;2023-07-20T15:15:12;27.80;47.40
3602;DHT22;1815;50.950;6.920;2023-07-20T15:17:40;27.80;47.40
3602;DHT22;1815;50.950;6.920;2023-07-20T15:20:08;27.80;47.50
3602;DHT22;1815;50.950;6.920;2023-07-20T15:22:34;27.80;47.60
3602;DHT22;1815;50.950;6.920;2023-07-20T15:25:02;27.80;47.50
3602;DHT22;1815;50.950;6.920;2023-07-20T15:27:29;27.80;48.00
3602;DHT22;1815;50.950;6.920;2023-07-20T15:29:55;27.80;47.40
3602;DHT22;1815;50.950;6.920;2023-07-20T15:32:21;27.80;47.50
3602;DHT22;1815;50.950;6.920;2023-07-20T15:34:47;27.80;47.50
3602;DHT22;1815;50.950;6.920;2023-07-20T15:37:13;27.80;47.60
3602;DHT22;1815;50.950;6.920;2023-07-20T15:39:39;27.90;47.70
3602;DHT22;1815;50.950;6.920;2023-07-20T15:42:05;27.90;47.70
3602;DHT22;1815;50.950;6.920;2023-07-20T15:44:32;28.00;47.70
3602;DHT22;1815;50.950;6.920;2023-07-20T15:46:57;28.00;47.90
3602;DHT22;1815;50.950;6.920;2023-07-20T15:49:23;28.10;48.00
3602;DHT22;1815;50.950;6.920;2023-07-20T15:51:53;28.10;48.00
3602;DHT22;1815;50.950;6.920;2023-07-20T15:54:19;28.10;47.90
3602;DHT22;1815;50.950;6.920;2023-07-20T15:56:45;28.10;47.90
3602;DHT22;1815;50.950;6.920;2023-07-20T15:59:12;28.10;47.80
3602;DHT22;1815;50.950;6.920;2023-07-20T16:01:38;28.10;47.70
3602;DHT22;1815;50.950;6.920;2023-07-20T16:04:05;28.00;47.50
3602;DHT22;1815;50.950;6.920;2023-07-20T16:06:31;27.90;47.50
3602;DHT22;1815;50.950;6.920;2023-07-20T16:08:58;27.80;47.50
3602;DHT22;1815;50.950;6.920;2023-07-20T16:11:24;27.80;47.50
3602;DHT22;1815;50.950;6.920;2023-07-20T16:13:50;27.70;47.60
3602;DHT22;1815;50.950;6.920;2023-07-20T16:16:17;27.60;47.60
3602;DHT22;1815;50.950;6.920;2023-07-20T16:18:43;27.60;47.70
3602;DHT22;1815;50.950;6.920;2023-07-20T16:21:09;27.60;47.70